• Join FlightAware (Why Join?)
  • Login
  • US Flag 
08:50AM EST


 

Airport Tracker/Info


-or-


 

Live Flight TrackerFlight Track Log ✈ EJA727 ✈ 28-Apr-2013 ✈ KAUS - KDAL

Flight Track Log - Related Links

Times and Time Zones

All times are in EDT time to prevent confusion due to time zone crossing. See the EJA727 flight status page for this flight to view local times or setup timezone preferences in your user account.

Time Position Orientation Groundspeed Altitude Reporting Facility
EDT Latitude Longitude Course Direction KTS MPH feet Rate Location/Type
10:42PM 30.1325 -97.6519 41° Northeast 211 243 3,900  Level Houston Center
10:43PM 30.1075 -97.5886 115° Southeast 250 288 8,000 3,541 Climbing Houston Center
10:44PM 30.1722 -97.5275 39° Northeast 301 346 11,100 3,049 Climbing Houston Center
10:45PM 30.2644 -97.4769 25° Northeast 352 405 14,200 3,344 Climbing Houston Center
10:46PM 30.3633 -97.4197 27° Northeast 382 440 17,900 3,344 Climbing Houston Center
10:47PM 30.4633 -97.3600 27° Northeast 396 456 21,000 2,016 Climbing Houston Center
10:48PM 30.5861 -97.2639 41° Northeast  Level FlightAware Approximate
10:48PM 30.5708 -97.2964 27° Northeast 421 484 22,000  Level Houston Center
10:49PM 30.6650 -97.1861 45° Northeast 479 551 22,000  Level Houston Center
10:50PM 30.7592 -97.0742 46° Northeast 485 558 22,000  Level Houston Center
10:51PM 30.8681 -96.9444 46° Northeast 482 555 22,000  Level Houston Center
10:52PM 30.9603 -96.8336 46° Northeast 477 549 22,000  Level Houston Center
10:53PM 31.0522 -96.7236 46° Northeast 476 548 22,000  Level Houston Center
10:54PM 31.1447 -96.6122 46° Northeast 476 548 22,000  Level Houston Center
10:55PM 31.2350 -96.5025 46° Northeast 468 539 22,000  Level Houston Center
10:56PM 31.3233 -96.3953 46° Northeast 458 527 22,000  Level Houston Center
10:57PM 31.4117 -96.3739 12° North 450 518 22,000  Level Fort Worth Center
10:58PM 31.5431 -96.3725 North 453 521 22,000 -650 Level Fort Worth Center
10:59PM 31.6725 -96.3711 North 463 533 20,700 -1,600 Descending Fort Worth Center
11:00PM 31.7914 -96.3722 360° North 434 499 18,800 -1,900 Descending Fort Worth Center
11:01PM 31.8981 -96.3733 359° North 393 452 16,900 -1,750 Descending Fort Worth Center
11:02PM 32.0106 -96.3697 North 388 447 15,300 -1,550 Descending Fort Worth Center
11:03PM 32.1172 -96.3708 359° North 383 441 13,800 -1,450 Descending Fort Worth Center
11:04PM 32.2092 -96.3700 360° North 350 403 12,400 -1,200 Descending Fort Worth Center
11:05PM 32.2989 -96.3714 359° North 322 371 11,400 -1,050 Descending Fort Worth Center
11:06PM 32.3825 -96.3850 352° North 327 376 10,300 -650 Descending Fort Worth Center
11:07PM 32.4808 -96.4258 341° North 340 391 10,100 -100 Descending Fort Worth Center
11:08PM 32.5625 -96.4619 340° North 345 397 10,100 -750 Level Fort Worth Center
11:09PM 32.6442 -96.4981 340° North 304 350 8,600 -1,600 Descending Fort Worth Center
11:10PM 32.6989 -96.5494 322° Northwest 280 322 6,900 -1,700 Descending Fort Worth Center
11:11PM 32.7619 -96.6181 318° Northwest 280 322 5,200 -1,000 Descending Fort Worth Center
11:12PM 32.8186 -96.6792 318° Northwest 280 322 4,900 -750 Descending Fort Worth Center
11:13PM 32.8667 -96.7167 327° Northwest 213 245 3,800 -1,128 Descending Dallas / Fort Worth TRACON
11:14PM 32.9000 -96.7833 301° West 208 239 2,700 -1,000 Descending Dallas / Fort Worth TRACON
11:15PM 32.9000 -96.8333 270° West 189 217 1,800 -730 Descending Dallas / Fort Worth TRACON
11:16PM 32.8833 -96.8833 248° West 139 160 1,300 -500 Descending Dallas / Fort Worth TRACON